Time;durP1;ratioP1;P1;durP2;ratioP2;P2;SDS_P1;SDS_P2;PMS_P1;PMS_P2;Temp;Humidity;BMP_temperature;BMP_pressure;BME280_temperature;BME280_humidity;BME280_pressure;Samples;Min_cycle;Max_cycle;Signal;HPM_P1;HPM_P2
2022/06/09 00:00:22;;;;;;;;;;;;;;;17.56;60.90;99865.53;5011929;28;6935;-77
2022/06/09 00:02:54;;;;;;;;;;;;;;;17.58;61.28;99863.00;5006647;28;7156;-77
2022/06/09 00:05:23;;;;;;;;;;;;;;;17.61;60.73;99863.00;5009659;28;8477;-77
2022/06/09 00:07:52;;;;;;;;;;;;;;;17.65;61.17;99871.69;5016950;28;8248;-77
2022/06/09 00:10:30;;;;;;;;;;;;;;;17.69;61.28;99868.28;5019824;28;7221;-77
2022/06/09 00:12:57;;;;;;;;;;;;;;;17.73;61.15;99880.41;5010472;28;6816;-77
2022/06/09 00:15:24;;;;;;;;;;;;;;;17.76;61.30;99875.25;5008075;28;7347;-77
2022/06/09 00:17:49;;;;;;;;;;;;;;;17.80;61.29;99873.56;5028070;28;6834;-77
2022/06/09 00:20:16;;;;;;;;;;;;;;;17.81;61.39;99878.78;5009926;28;6803;-77
2022/06/09 00:22:42;;;;;;;;;;;;;;;17.84;60.99;99881.38;5019899;28;7121;-77
2022/06/09 00:25:09;;;;;;;;;;;;;;;17.85;60.64;99882.28;5018126;28;8059;-77
2022/06/09 00:27:35;;;;;;;;;;;;;;;17.88;60.78;99883.16;5002466;28;7050;-77
2022/06/09 00:30:06;;;;;;;;;;;;;;;17.91;61.15;99892.69;5009415;28;7038;-77
2022/06/09 00:32:32;;;;;;;;;;;;;;;17.95;60.36;99886.69;5014987;28;6987;-77
2022/06/09 00:34:57;;;;;;;;;;;;;;;17.98;61.09;99891.03;5009179;28;6829;-77
2022/06/09 00:37:23;;;;;;;;;;;;;;;17.99;60.99;99888.44;4996372;28;7187;-77
2022/06/09 00:39:49;;;;;;;;;;;;;;;18.03;60.64;99885.06;5012427;28;7407;-77
2022/06/09 00:42:16;;;;;;;;;;;;;;;18.05;60.84;99887.66;5010792;28;7177;-77
2022/06/09 00:44:42;;;;;;;;;;;;;;;18.07;61.05;99880.78;5009088;28;7181;-77
2022/06/09 00:47:23;;;;;;;;;;;;;;;18.09;60.84;99888.56;5010199;28;6800;-77
2022/06/09 00:50:20;;;;;;;;;;;;;;;18.10;60.54;99890.28;5010167;28;6827;-77
2022/06/09 00:52:58;;;;;;;;;;;;;;;18.09;60.02;99898.94;5016961;28;7876;-77
2022/06/09 00:55:30;;;;;;;;;;;;;;;18.06;60.32;99894.59;4978190;28;8620;-77
2022/06/09 00:58:06;;;;;;;;;;;;;;;18.05;60.50;99890.25;5007214;28;6820;-77
2022/06/09 01:00:44;;;;;;;;;;;;;;;18.03;60.13;99890.25;4990088;28;6993;-77
2022/06/09 01:03:10;;;;;;;;;;;;;;;18.02;60.21;99898.84;5006932;28;7234;-77
2022/06/09 01:05:40;;;;;;;;;;;;;;;18.01;60.27;99902.31;5002587;28;7010;-77
2022/06/09 01:08:09;;;;;;;;;;;;;;;18.01;60.78;99904.03;4993561;28;7144;-77
2022/06/09 01:10:35;;;;;;;;;;;;;;;18.02;60.62;99908.34;5010946;28;6824;-77
2022/06/09 01:13:00;;;;;;;;;;;;;;;18.04;60.82;99904.97;5008929;28;6799;-77
2022/06/09 01:15:46;;;;;;;;;;;;;;;18.06;60.65;99907.56;5011524;28;6803;-77
2022/06/09 01:18:43;;;;;;;;;;;;;;;18.09;60.47;99907.59;5005983;28;7255;-77
2022/06/09 01:22:02;;;;;;;;;;;;;;;18.06;60.45;99914.47;5004886;28;7338;-77
2022/06/09 01:24:56;;;;;;;;;;;;;;;17.98;60.78;99914.38;5009789;28;7863;-77
2022/06/09 01:27:30;;;;;;;;;;;;;;;17.94;60.46;99925.53;5011487;28;6987;-77
2022/06/09 01:30:15;;;;;;;;;;;;;;;17.87;60.60;99919.44;5008171;28;9494;-77
2022/06/09 01:33:19;;;;;;;;;;;;;;;17.81;61.24;99930.63;5012716;28;6807;-76
2022/06/09 01:35:54;;;;;;;;;;;;;;;17.75;61.32;99933.13;5000941;28;6968;-76
2022/06/09 01:38:20;;;;;;;;;;;;;;;17.72;60.87;99930.50;5028852;28;6807;-76
2022/06/09 01:40:46;;;;;;;;;;;;;;;17.67;60.78;99933.03;5026168;28;7701;-76
2022/06/09 01:43:12;;;;;;;;;;;;;;;17.64;61.33;99935.63;5012815;28;6803;-76
2022/06/09 01:46:03;;;;;;;;;;;;;;;17.62;61.23;99937.28;4991006;28;8534;-76
2022/06/09 01:48:30;;;;;;;;;;;;;;;17.58;61.99;99938.13;5011593;28;7310;-76
2022/06/09 01:51:15;;;;;;;;;;;;;;;17.55;61.66;99938.94;5007324;28;7045;-76
2022/06/09 01:54:01;;;;;;;;;;;;;;;17.52;61.92;99938.91;5020114;28;6816;-76
2022/06/09 01:56:43;;;;;;;;;;;;;;;17.50;62.18;99940.63;5007666;28;7659;-76
2022/06/09 01:59:29;;;;;;;;;;;;;;;17.52;62.33;99944.09;5010125;28;6892;-76
2022/06/09 02:02:02;;;;;;;;;;;;;;;17.53;62.28;99948.44;5013603;28;6981;-76
2022/06/09 02:04:40;;;;;;;;;;;;;;;17.55;62.22;99944.13;4997132;28;6984;-76
2022/06/09 02:07:08;;;;;;;;;;;;;;;17.58;61.63;99958.84;5012409;28;6828;-76
2022/06/09 02:09:37;;;;;;;;;;;;;;;17.59;61.62;99945.94;5025837;28;6843;-76
2022/06/09 02:12:11;;;;;;;;;;;;;;;17.61;61.45;99954.56;5010516;28;6804;-76
2022/06/09 02:14:45;;;;;;;;;;;;;;;17.61;61.96;99956.28;5004104;28;7285;-76
2022/06/09 02:17:11;;;;;;;;;;;;;;;17.62;61.75;99958.03;5026200;28;6878;-77
2022/06/09 02:19:40;;;;;;;;;;;;;;;17.60;61.61;99960.63;5017051;28;6808;-76
2022/06/09 02:22:11;;;;;;;;;;;;;;;17.58;61.45;99964.03;5029806;28;6804;-76
2022/06/09 02:24:37;;;;;;;;;;;;;;;17.58;61.60;99964.91;4983931;28;7245;-76
2022/06/09 02:27:05;;;;;;;;;;;;;;;17.57;61.33;99963.16;4988577;28;7877;-77
2022/06/09 02:29:31;;;;;;;;;;;;;;;17.54;61.61;99964.84;4998188;28;7017;-76
2022/06/09 02:31:57;;;;;;;;;;;;;;;17.51;61.10;99963.09;4992309;28;7225;-77
2022/06/09 02:34:23;;;;;;;;;;;;;;;17.48;61.81;99969.09;5029407;28;7888;-77
2022/06/09 02:36:49;;;;;;;;;;;;;;;17.46;61.49;99975.09;5013937;28;6831;-77
2022/06/09 02:39:15;;;;;;;;;;;;;;;17.45;61.59;99965.59;5004790;28;7147;-77
2022/06/09 02:41:41;;;;;;;;;;;;;;;17.45;62.09;99970.78;5012719;28;6879;-77
2022/06/09 02:44:06;;;;;;;;;;;;;;;17.46;61.99;99980.28;4993572;28;6875;-76
2022/06/09 02:46:32;;;;;;;;;;;;;;;17.49;62.30;99977.75;4993260;28;6850;-76
2022/06/09 02:48:59;;;;;;;;;;;;;;;17.52;62.22;99975.19;5013872;28;6795;-76
2022/06/09 02:51:33;;;;;;;;;;;;;;;17.57;61.58;99983.88;4996324;28;6974;-76
2022/06/09 02:54:04;;;;;;;;;;;;;;;17.60;61.93;99983.94;5014239;28;7186;-77
2022/06/09 02:56:30;;;;;;;;;;;;;;;17.61;62.13;99980.50;4996287;28;7015;-77
2022/06/09 02:58:56;;;;;;;;;;;;;;;17.65;61.83;99986.59;5016082;28;7434;-77
2022/06/09 03:01:25;;;;;;;;;;;;;;;17.65;61.95;99991.78;5014785;28;6807;-77
2022/06/09 03:03:52;;;;;;;;;;;;;;;17.66;61.86;99984.84;5009370;28;6974;-77
2022/06/09 03:06:18;;;;;;;;;;;;;;;17.67;62.22;99990.06;4996462;28;7319;-77
2022/06/09 03:08:44;;;;;;;;;;;;;;;17.67;61.71;99984.00;5017412;28;7867;-77
2022/06/09 03:11:12;;;;;;;;;;;;;;;17.68;61.91;99994.38;5015204;28;6792;-77
2022/06/09 03:13:40;;;;;;;;;;;;;;;17.68;62.14;99996.97;4998354;28;6991;-77
2022/06/09 03:16:08;;;;;;;;;;;;;;;17.67;62.04;99997.84;5014969;28;7080;-76
2022/06/09 03:18:35;;;;;;;;;;;;;;;17.70;61.61;100009.97;5015303;28;6795;-76
2022/06/09 03:21:01;;;;;;;;;;;;;;;17.72;62.32;100009.16;5006595;28;8523;-76
2022/06/09 03:23:27;;;;;;;;;;;;;;;17.77;62.21;100016.97;5032974;28;6775;-76
2022/06/09 03:25:52;;;;;;;;;;;;;;;17.79;61.91;100011.78;5009871;28;6982;-76
2022/06/09 03:28:18;;;;;;;;;;;;;;;17.81;61.76;100023.91;5009044;28;6800;-76
2022/06/09 03:30:44;;;;;;;;;;;;;;;17.83;61.94;100024.81;5028086;28;8081;-76
2022/06/09 03:33:11;;;;;;;;;;;;;;;17.83;61.87;100024.81;4983605;28;8892;-77
2022/06/09 03:35:37;;;;;;;;;;;;;;;17.85;61.84;100030.88;5014479;28;7336;-76
2022/06/09 03:38:04;;;;;;;;;;;;;;;17.89;61.64;100037.84;5015960;28;6807;-76
2022/06/09 03:40:31;;;;;;;;;;;;;;;17.91;62.28;100040.44;4996259;28;7157;-77
2022/06/09 03:42:58;;;;;;;;;;;;;;;17.95;62.23;100042.25;5004749;28;7125;-77
2022/06/09 03:45:25;;;;;;;;;;;;;;;18.00;61.77;100050.06;5013091;28;7173;-77
2022/06/09 03:47:51;;;;;;;;;;;;;;;18.04;62.13;100052.75;4992962;28;7000;-77
2022/06/09 03:50:22;;;;;;;;;;;;;;;18.08;62.06;100047.59;5009995;28;7232;-77
2022/06/09 03:52:48;;;;;;;;;;;;;;;18.11;61.60;100048.50;5014054;28;7269;-77
2022/06/09 03:55:14;;;;;;;;;;;;;;;18.14;62.11;100047.66;5006270;28;6800;-77
2022/06/09 03:57:40;;;;;;;;;;;;;;;18.16;61.93;100054.63;4993933;28;7078;-77
2022/06/09 04:00:12;;;;;;;;;;;;;;;18.20;61.47;100060.69;4998927;28;7187;-76
2022/06/09 04:02:38;;;;;;;;;;;;;;;18.22;61.45;100055.53;5009653;28;6808;-77
2022/06/09 04:05:04;;;;;;;;;;;;;;;18.25;61.87;100051.25;4989928;28;6795;-77
2022/06/09 04:07:30;;;;;;;;;;;;;;;18.28;62.23;100060.78;5015800;28;6863;-77
2022/06/09 04:09:56;;;;;;;;;;;;;;;18.32;61.94;100058.25;4988958;28;7046;-76
2022/06/09 04:12:21;;;;;;;;;;;;;;;18.37;62.00;100052.22;5003816;28;6882;-76
2022/06/09 04:14:47;;;;;;;;;;;;;;;18.42;62.30;100048.81;5009387;28;6886;-76
2022/06/09 04:17:13;;;;;;;;;;;;;;;18.53;62.26;100056.72;4995455;28;6787;-76
2022/06/09 04:19:39;;;;;;;;;;;;;;;18.64;62.09;100059.44;5009041;28;6804;-77
2022/06/09 04:22:06;;;;;;;;;;;;;;;18.74;62.65;100063.84;4993976;28;7197;-76
2022/06/09 04:24:32;;;;;;;;;;;;;;;18.87;62.42;100062.22;4997948;28;7058;-76
2022/06/09 04:26:58;;;;;;;;;;;;;;;18.99;62.04;100076.19;5020819;28;6980;-77
2022/06/09 04:29:24;;;;;;;;;;;;;;;19.04;61.24;100074.50;5004591;28;7211;-77
2022/06/09 04:31:50;;;;;;;;;;;;;;;19.04;61.00;100071.06;5015260;28;6811;-77
2022/06/09 04:34:16;;;;;;;;;;;;;;;18.98;60.69;100072.69;5009797;28;7054;-77
2022/06/09 04:36:42;;;;;;;;;;;;;;;18.91;60.41;100077.84;5021053;28;7831;-77
2022/06/09 04:39:09;;;;;;;;;;;;;;;18.83;60.63;100080.34;5002435;28;6863;-77
2022/06/09 04:41:37;;;;;;;;;;;;;;;18.74;60.74;100087.22;5012267;28;6808;-77
2022/06/09 04:44:03;;;;;;;;;;;;;;;18.67;60.62;100093.19;5011112;28;6872;-77
2022/06/09 04:46:29;;;;;;;;;;;;;;;18.63;60.56;100096.59;5028747;28;6899;-77
2022/06/09 04:48:55;;;;;;;;;;;;;;;18.60;60.64;100100.06;5012259;28;6796;-77
2022/06/09 04:51:23;;;;;;;;;;;;;;;18.59;60.93;100093.13;5013780;28;6870;-77
2022/06/09 04:53:50;;;;;;;;;;;;;;;18.60;60.82;100093.97;5012801;28;7679;-77
2022/06/09 04:56:18;;;;;;;;;;;;;;;18.59;60.63;100097.44;5012166;28;6883;-77
2022/06/09 04:58:43;;;;;;;;;;;;;;;18.61;61.05;100106.09;5013223;28;6823;-77
2022/06/09 05:01:21;;;;;;;;;;;;;;;18.65;60.90;100104.41;5011280;28;6890;-77
2022/06/09 05:03:49;;;;;;;;;;;;;;;18.67;60.92;100103.56;5019590;28;6823;-77
2022/06/09 05:06:18;;;;;;;;;;;;;;;18.68;61.10;100110.50;5007969;28;6899;-77
2022/06/09 05:08:44;;;;;;;;;;;;;;;18.68;60.73;100114.81;5012239;28;6875;-78
2022/06/09 05:11:10;;;;;;;;;;;;;;;18.73;61.13;100120.94;5010891;28;6882;-77
2022/06/09 05:13:35;;;;;;;;;;;;;;;18.81;61.26;100118.41;4993944;28;7037;-77
2022/06/09 05:16:03;;;;;;;;;;;;;;;18.91;61.22;100121.97;5010930;28;6783;-77
2022/06/09 05:18:31;;;;;;;;;;;;;;;18.95;60.65;100127.22;5012561;28;6903;-77
2022/06/09 05:20:58;;;;;;;;;;;;;;;19.02;60.95;100130.75;5014195;28;6811;-77
2022/06/09 05:23:26;;;;;;;;;;;;;;;19.07;61.12;100138.59;4997688;28;7951;-77
2022/06/09 05:25:55;;;;;;;;;;;;;;;19.14;61.02;100135.19;5012112;28;6812;-77
2022/06/09 05:28:23;;;;;;;;;;;;;;;19.20;60.18;100144.75;4997750;28;6808;-77
2022/06/09 05:30:49;;;;;;;;;;;;;;;19.27;60.62;100151.75;5017970;28;6812;-77
2022/06/09 05:33:15;;;;;;;;;;;;;;;19.31;60.63;100160.41;5014634;28;6812;-77
2022/06/09 05:35:41;;;;;;;;;;;;;;;19.33;60.35;100159.59;5014397;28;6800;-77
2022/06/09 05:46:26;;;;;;;;;;;;;;;19.43;59.94;100176.13;5016785;28;6820;-77
2022/06/09 05:48:52;;;;;;;;;;;;;;;19.49;59.90;100186.56;5012423;28;6815;-77
2022/06/09 05:51:18;;;;;;;;;;;;;;;19.54;59.59;100190.06;5012441;28;6784;-77
2022/06/09 05:53:44;;;;;;;;;;;;;;;19.56;59.77;100187.50;5021729;28;6882;-77
2022/06/09 05:56:11;;;;;;;;;;;;;;;19.57;59.52;100200.50;4999338;28;6865;-77
2022/06/09 05:58:37;;;;;;;;;;;;;;;19.58;59.61;100198.78;5011810;28;6808;-77
2022/06/09 06:01:08;;;;;;;;;;;;;;;19.58;59.30;100198.78;5017637;28;6871;-77
2022/06/09 06:03:36;;;;;;;;;;;;;;;19.59;59.78;100199.63;5019529;28;7546;-77
2022/06/09 06:08:46;;;;;;;;;;;;;;;19.63;59.66;100209.22;5018185;28;6804;-77
2022/06/09 06:11:14;;;;;;;;;;;;;;;19.65;59.04;100203.16;5013761;28;6771;-77
2022/06/09 06:13:42;;;;;;;;;;;;;;;19.69;59.40;100210.13;5018374;28;7074;-77
2022/06/09 06:16:08;;;;;;;;;;;;;;;19.71;58.94;100211.00;5030272;28;6976;-77
2022/06/09 06:18:33;;;;;;;;;;;;;;;19.75;59.14;100211.88;5025565;28;6968;-77
2022/06/09 06:20:59;;;;;;;;;;;;;;;19.78;59.32;100219.69;5019786;28;6788;-79
2022/06/09 06:23:26;;;;;;;;;;;;;;;19.83;59.38;100228.41;5018066;28;6787;-77
2022/06/09 06:25:53;;;;;;;;;;;;;;;19.89;58.73;100231.91;5014093;28;7227;-77
2022/06/09 06:28:20;;;;;;;;;;;;;;;19.93;58.95;100234.56;5011767;28;7248;-77
2022/06/09 06:30:47;;;;;;;;;;;;;;;19.97;59.49;100235.47;5012518;28;6796;-77
2022/06/09 06:33:12;;;;;;;;;;;;;;;20.03;59.31;100238.13;5002136;28;7069;-77
2022/06/09 06:35:38;;;;;;;;;;;;;;;20.10;58.59;100237.31;5025987;28;6883;-77
2022/06/09 06:38:04;;;;;;;;;;;;;;;20.18;58.75;100233.84;5011090;28;7132;-77
2022/06/09 06:40:30;;;;;;;;;;;;;;;20.26;58.98;100239.97;5011749;28;6787;-77
2022/06/09 06:42:56;;;;;;;;;;;;;;;20.33;58.70;100244.34;5013433;28;6800;-77
2022/06/09 06:45:22;;;;;;;;;;;;;;;20.44;58.54;100240.94;5009002;28;7625;-77
2022/06/09 06:47:47;;;;;;;;;;;;;;;20.57;58.05;100247.97;4999786;28;9692;-77
2022/06/09 06:50:14;;;;;;;;;;;;;;;20.70;58.24;100248.84;5011547;28;6875;-77
2022/06/09 06:52:41;;;;;;;;;;;;;;;20.87;58.21;100256.78;5031798;28;6788;-77
2022/06/09 06:55:12;;;;;;;;;;;;;;;21.05;57.67;100258.56;5014319;28;6868;-77
2022/06/09 06:57:37;;;;;;;;;;;;;;;21.22;56.86;100252.50;5005208;28;7180;-77
2022/06/09 07:00:06;;;;;;;;;;;;;;;21.32;56.94;100266.41;5013251;28;6882;-77
2022/06/09 07:02:32;;;;;;;;;;;;;;;21.43;56.57;100269.91;5011812;28;6947;-77
2022/06/09 07:04:58;;;;;;;;;;;;;;;21.54;56.55;100269.91;4995220;28;7034;-77
2022/06/09 07:07:25;;;;;;;;;;;;;;;21.59;56.00;100278.63;5008279;28;6949;-78
2022/06/09 07:09:51;;;;;;;;;;;;;;;21.60;55.67;100285.56;5011967;28;6812;-77
2022/06/09 07:12:18;;;;;;;;;;;;;;;21.59;55.74;100282.97;5012710;28;7193;-77
2022/06/09 07:14:44;;;;;;;;;;;;;;;21.56;55.56;100282.97;5014775;28;7027;-77
2022/06/09 07:17:10;;;;;;;;;;;;;;;21.52;55.66;100292.53;4998353;28;7709;-77
2022/06/09 07:19:37;;;;;;;;;;;;;;;21.54;55.89;100295.13;5013136;28;6803;-77
2022/06/09 07:22:04;;;;;;;;;;;;;;;21.54;55.41;100290.78;5008151;28;6808;-77
2022/06/09 07:24:29;;;;;;;;;;;;;;;21.51;55.57;100302.06;5017568;28;6823;-77
2022/06/09 07:26:55;;;;;;;;;;;;;;;21.51;55.44;100296.84;5004537;28;6990;-77
2022/06/09 07:29:21;;;;;;;;;;;;;;;21.54;55.56;100305.56;5015559;28;6874;-77
2022/06/09 07:31:48;;;;;;;;;;;;;;;21.57;55.35;100309.03;5028949;28;6803;-77
2022/06/09 07:34:14;;;;;;;;;;;;;;;21.63;55.77;100303.81;4999093;28;6899;-77
2022/06/09 07:36:41;;;;;;;;;;;;;;;21.74;55.80;100305.59;5013613;28;6804;-77
2022/06/09 07:39:07;;;;;;;;;;;;;;;21.87;55.61;100306.47;5024744;28;7203;-77
2022/06/09 07:41:34;;;;;;;;;;;;;;;22.05;55.41;100310.78;5023745;28;7244;-77
2022/06/09 07:44:03;;;;;;;;;;;;;;;22.24;55.56;100313.38;5008248;28;7208;-77
2022/06/09 07:46:30;;;;;;;;;;;;;;;22.44;55.48;100302.91;5016647;28;6815;-76
2022/06/09 07:48:57;;;;;;;;;;;;;;;22.67;54.91;100318.53;5013889;28;6792;-76
2022/06/09 07:51:24;;;;;;;;;;;;;;;22.86;54.54;100314.09;5015025;28;7185;-76
2022/06/09 07:53:51;;;;;;;;;;;;;;;22.95;53.53;100315.81;5015387;28;7053;-76
2022/06/09 07:56:17;;;;;;;;;;;;;;;22.95;53.18;100313.22;5016859;28;7236;-76
2022/06/09 07:58:43;;;;;;;;;;;;;;;22.91;53.67;100334.13;5014647;28;6965;-76
2022/06/09 08:01:10;;;;;;;;;;;;;;;22.87;53.21;100320.22;5001038;28;6971;-76
2022/06/09 08:03:39;;;;;;;;;;;;;;;22.85;53.54;100322.81;5030600;28;6800;-77
2022/06/09 08:06:06;;;;;;;;;;;;;;;22.89;53.41;100324.56;5016786;28;6819;-77
2022/06/09 08:08:32;;;;;;;;;;;;;;;23.00;53.69;100321.88;5017863;28;6892;-77
2022/06/09 08:10:58;;;;;;;;;;;;;;;23.23;53.62;100333.09;5016061;28;6800;-77
2022/06/09 08:13:24;;;;;;;;;;;;;;;23.40;53.21;100339.13;5017216;28;7352;-77
2022/06/09 08:15:50;;;;;;;;;;;;;;;23.54;52.79;100333.81;5018272;28;7014;-77
2022/06/09 08:18:15;;;;;;;;;;;;;;;23.58;52.32;100339.91;4999855;28;6991;-77
2022/06/09 08:20:43;;;;;;;;;;;;;;;23.57;51.84;100351.25;5015752;28;6999;-77
2022/06/09 08:23:19;;;;;;;;;;;;;;;23.60;52.66;100343.38;5016779;28;6808;-77
2022/06/09 08:25:46;;;;;;;;;;;;;;;23.71;52.28;100353.78;5016226;28;6982;-76
2022/06/09 08:28:13;;;;;;;;;;;;;;;23.89;52.56;100352.75;5017038;28;6795;-76
2022/06/09 08:30:39;;;;;;;;;;;;;;;24.08;52.62;100350.88;5031703;28;7082;-76
2022/06/09 08:33:06;;;;;;;;;;;;;;;24.41;52.76;100347.94;5018688;28;7096;-76
2022/06/09 08:35:34;;;;;;;;;;;;;;;24.78;51.78;100363.28;5004587;28;7006;-76
2022/06/09 08:38:00;;;;;;;;;;;;;;;25.06;51.09;100362.06;5018140;28;6812;-76
2022/06/09 08:41:23;;;;;;;;;;;;;;;25.20;49.94;100369.75;5016772;28;7272;-76
2022/06/09 08:44:24;;;;;;;;;;;;;;;25.29;50.55;100372.25;4995854;28;6892;-76
2022/06/09 08:47:29;;;;;;;;;;;;;;;25.92;50.72;100367.00;5020783;28;6973;-76
2022/06/09 08:50:11;;;;;;;;;;;;;;;26.86;50.02;100376.75;5010330;28;6875;-77
2022/06/09 08:53:05;;;;;;;;;;;;;;;27.54;48.59;100366.53;5007753;28;6964;-77
2022/06/09 08:55:52;;;;;;;;;;;;;;;27.80;46.39;100368.56;5012293;28;8338;-77
2022/06/09 08:58:48;;;;;;;;;;;;;;;27.61;45.78;100375.19;5009873;28;7041;-77
2022/06/09 09:01:41;;;;;;;;;;;;;;;27.38;45.70;100382.69;5006417;28;6812;-77
2022/06/09 09:04:35;;;;;;;;;;;;;;;27.14;45.75;100378.84;5006197;28;7712;-77
2022/06/09 09:07:30;;;;;;;;;;;;;;;27.03;46.04;100387.78;4995309;28;7271;-77
2022/06/09 09:10:20;;;;;;;;;;;;;;;27.14;46.15;100400.72;5006988;28;7026;-77
2022/06/09 09:13:22;;;;;;;;;;;;;;;27.29;45.74;100391.63;4998659;28;6967;-77
2022/06/09 09:16:02;;;;;;;;;;;;;;;27.53;45.11;100381.47;5012055;28;6878;-77
2022/06/09 09:19:03;;;;;;;;;;;;;;;27.49;43.86;100394.75;4991934;28;6807;-76
2022/06/09 09:21:44;;;;;;;;;;;;;;;27.16;43.97;100392.81;5009067;28;7023;-76
2022/06/09 09:24:22;;;;;;;;;;;;;;;26.78;43.87;100397.91;5026401;28;6819;-77
2022/06/09 09:27:24;;;;;;;;;;;;;;;26.44;44.71;100399.41;5017889;28;6961;-77
2022/06/09 09:30:13;;;;;;;;;;;;;;;26.08;44.42;100407.03;5012742;28;6796;-77
2022/06/09 09:32:48;;;;;;;;;;;;;;;25.82;45.08;100410.03;4982311;28;6981;-77
2022/06/09 09:35:40;;;;;;;;;;;;;;;25.91;45.50;100410.78;5006690;28;7047;-77
2022/06/09 09:38:09;;;;;;;;;;;;;;;26.34;46.18;100409.22;5014785;28;7219;-77
2022/06/09 09:40:44;;;;;;;;;;;;;;;26.99;45.46;100408.91;5035379;28;6899;-77
2022/06/09 09:43:23;;;;;;;;;;;;;;;27.63;44.32;100410.25;5015065;28;7114;-77
2022/06/09 09:45:55;;;;;;;;;;;;;;;28.26;44.60;100397.31;5007771;28;6914;-77
2022/06/09 09:48:21;;;;;;;;;;;;;;;29.00;43.27;100404.16;5033924;28;7206;-77
2022/06/09 09:51:01;;;;;;;;;;;;;;;29.55;42.60;100406.06;5013320;28;8071;-76
2022/06/09 09:53:46;;;;;;;;;;;;;;;30.03;42.06;100413.31;5012936;28;7010;-77
2022/06/09 09:56:18;;;;;;;;;;;;;;;30.30;40.18;100408.03;5011479;28;6880;-77
2022/06/09 09:58:46;;;;;;;;;;;;;;;30.40;39.40;100415.66;5018703;28;7011;-77
2022/06/09 10:01:18;;;;;;;;;;;;;;;30.29;39.38;100418.69;5014273;28;6855;-77
2022/06/09 10:09:41;;;;;;;;;;;;;;;30.65;38.23;100430.69;5027750;28;7304;-76
2022/06/09 10:12:30;;;;;;;;;;;;;;;31.03;37.68;100433.72;5000612;28;7014;-77
2022/06/09 10:15:11;;;;;;;;;;;;;;;31.38;38.54;100434.19;5017198;28;7234;-75
2022/06/09 10:17:55;;;;;;;;;;;;;;;31.82;37.49;100425.47;5014827;28;7141;-75
2022/06/09 10:21:01;;;;;;;;;;;;;;;31.54;36.31;100438.91;5003388;28;6808;-75
2022/06/09 10:23:55;;;;;;;;;;;;;;;30.84;37.31;100442.34;5024425;28;7410;-75
2022/06/09 10:26:30;;;;;;;;;;;;;;;30.46;37.18;100440.09;4998124;28;7294;-76
2022/06/09 10:29:37;;;;;;;;;;;;;;;30.27;37.94;100436.34;5015141;28;7161;-76
2022/06/09 10:32:21;;;;;;;;;;;;;;;30.14;37.71;100447.34;4999690;28;6832;-76
2022/06/09 10:35:29;;;;;;;;;;;;;;;29.77;37.66;100446.75;5017957;28;7228;-76
2022/06/09 10:38:25;;;;;;;;;;;;;;;28.89;37.53;100455.44;5001909;28;7001;-76
2022/06/09 10:41:01;;;;;;;;;;;;;;;27.75;38.94;100457.34;5016169;28;6911;-76
2022/06/09 10:44:07;;;;;;;;;;;;;;;26.72;40.66;100472.50;5014720;28;7272;-76
2022/06/09 10:56:08;;;;;;;;;;;;;;;23.81;45.41;100496.75;5022948;28;6999;-75
2022/06/09 10:58:44;;;;;;;;;;;;;;;23.59;46.73;100498.59;5013576;28;6878;-75
2022/06/09 11:01:33;;;;;;;;;;;;;;;23.50;47.22;100498.63;5028819;28;6812;-75
2022/06/09 11:04:05;;;;;;;;;;;;;;;23.51;47.64;100495.13;4984134;28;7081;-75
2022/06/09 11:07:10;;;;;;;;;;;;;;;23.62;47.44;100497.72;5002389;28;6828;-75
2022/06/09 11:10:18;;;;;;;;;;;;;;;23.88;48.01;100489.72;5015757;28;6816;-75
2022/06/09 11:13:11;;;;;;;;;;;;;;;24.73;49.29;100488.25;5015323;28;7250;-77
2022/06/09 11:16:11;;;;;;;;;;;;;;;25.95;48.36;100478.97;5014636;28;6816;-76
2022/06/09 11:19:12;;;;;;;;;;;;;;;27.31;46.60;100481.91;5014234;28;6820;-77
2022/06/09 11:22:13;;;;;;;;;;;;;;;28.79;44.29;100477.69;5007558;28;7196;-76
2022/06/09 11:24:46;;;;;;;;;;;;;;;29.92;42.91;100481.50;4995266;28;7039;-76
2022/06/09 11:27:27;;;;;;;;;;;;;;;30.49;40.85;100476.16;5017762;28;7761;-76
2022/06/09 11:30:12;;;;;;;;;;;;;;;30.82;40.12;100475.94;5016390;28;7254;-76
2022/06/09 11:33:06;;;;;;;;;;;;;;;31.55;39.54;100469.75;5013203;28;6823;-76
2022/06/09 11:35:49;;;;;;;;;;;;;;;32.16;36.97;100465.59;5012406;28;7164;-76
2022/06/09 11:38:41;;;;;;;;;;;;;;;32.27;37.39;100471.31;5016320;28;6799;-76
2022/06/09 11:41:28;;;;;;;;;;;;;;;32.24;36.65;100479.38;5017615;28;7007;-76
2022/06/09 11:44:26;;;;;;;;;;;;;;;31.77;35.70;100477.72;5027425;28;7000;-76
2022/06/09 11:47:00;;;;;;;;;;;;;;;31.08;35.80;100502.38;5009433;28;6962;-76
2022/06/09 11:49:53;;;;;;;;;;;;;;;30.34;35.51;100520.69;4996947;28;6811;-76
2022/06/09 11:52:29;;;;;;;;;;;;;;;29.42;34.57;100530.47;5007106;28;7021;-76
2022/06/09 11:54:55;;;;;;;;;;;;;;;28.47;35.23;100547.91;5008517;28;6991;-76
2022/06/09 11:57:25;;;;;;;;;;;;;;;27.44;35.02;100560.63;5009853;28;6971;-76
2022/06/09 12:00:18;;;;;;;;;;;;;;;26.39;35.74;100579.91;5011326;28;7876;-76
2022/06/09 12:03:19;;;;;;;;;;;;;;;25.28;37.20;100587.38;5027535;28;6811;-76
2022/06/09 12:06:11;;;;;;;;;;;;;;;24.27;38.46;100604.69;5026302;28;7397;-76
2022/06/09 12:09:01;;;;;;;;;;;;;;;23.41;39.97;100599.78;5010422;28;7101;-76
2022/06/09 12:12:28;;;;;;;;;;;;;;;22.54;42.17;100607.59;5004071;28;6788;-76
2022/06/09 12:15:24;;;;;;;;;;;;;;;21.82;43.88;100616.91;4998838;28;6812;-76
2022/06/09 12:18:25;;;;;;;;;;;;;;;21.42;45.41;100624.47;5009220;28;6799;-76
2022/06/09 12:20:50;;;;;;;;;;;;;;;21.10;46.99;100623.34;5022451;28;7291;-76
2022/06/09 12:23:31;;;;;;;;;;;;;;;20.93;47.27;100638.84;5009765;28;7148;-76
2022/06/09 12:26:09;;;;;;;;;;;;;;;20.79;49.03;100641.28;5011366;28;6807;-77
2022/06/09 12:28:50;;;;;;;;;;;;;;;20.79;49.60;100638.69;5011964;28;7045;-76
2022/06/09 12:31:33;;;;;;;;;;;;;;;20.80;49.97;100646.50;5014694;28;6796;-76
2022/06/09 12:34:16;;;;;;;;;;;;;;;20.86;50.37;100644.84;5024729;28;6888;-76
2022/06/09 12:37:00;;;;;;;;;;;;;;;20.91;50.41;100649.25;4998903;28;8931;-77
2022/06/09 12:39:40;;;;;;;;;;;;;;;20.99;51.31;100656.25;4996010;28;8601;-76
2022/06/09 12:42:21;;;;;;;;;;;;;;;21.11;51.41;100658.97;5000769;28;7397;-76
2022/06/09 12:44:59;;;;;;;;;;;;;;;21.26;51.34;100659.97;4998725;28;6815;-76
2022/06/09 12:47:25;;;;;;;;;;;;;;;21.31;51.30;100658.25;5014211;28;6946;-76
2022/06/09 12:50:18;;;;;;;;;;;;;;;21.28;51.59;100663.47;5014127;28;6874;-76
2022/06/09 12:52:47;;;;;;;;;;;;;;;21.21;52.15;100663.41;5019730;28;8429;-76
2022/06/09 12:55:42;;;;;;;;;;;;;;;21.13;52.55;100665.06;5013285;28;6799;-76
2022/06/09 12:58:47;;;;;;;;;;;;;;;21.12;53.56;100672.88;5004887;28;8454;-76
2022/06/09 13:01:19;;;;;;;;;;;;;;;21.12;54.06;100672.88;5010192;28;6812;-76
2022/06/09 13:03:52;;;;;;;;;;;;;;;21.21;54.29;100663.41;5020312;28;8596;-76
2022/06/09 13:06:30;;;;;;;;;;;;;;;21.33;54.24;100669.56;5022010;28;6819;-76
2022/06/09 13:09:21;;;;;;;;;;;;;;;21.53;54.92;100674.06;4996973;28;8643;-76
2022/06/09 13:14:41;;;;;;;;;;;;;;;22.06;54.17;100659.59;5006917;28;7249;-76
2022/06/09 13:17:24;;;;;;;;;;;;;;;22.24;53.85;100656.22;5000824;28;6868;-76
2022/06/09 13:20:06;;;;;;;;;;;;;;;22.41;53.79;100660.63;5011349;28;7362;-76
2022/06/09 13:22:33;;;;;;;;;;;;;;;22.58;53.57;100666.78;5005932;28;7175;-76
2022/06/09 13:24:59;;;;;;;;;;;;;;;22.73;53.44;100663.34;5017578;28;7027;-76
2022/06/09 13:27:31;;;;;;;;;;;;;;;22.84;53.23;100665.97;5016823;28;6807;-76
2022/06/09 13:30:03;;;;;;;;;;;;;;;22.95;53.09;100659.88;5000649;28;6985;-76
2022/06/09 13:32:46;;;;;;;;;;;;;;;23.09;53.50;100657.28;5014831;28;7892;-77
2022/06/09 13:35:35;;;;;;;;;;;;;;;23.35;53.45;100656.44;5014307;28;7068;-77
2022/06/09 13:38:33;;;;;;;;;;;;;;;23.57;52.92;100654.66;5015656;28;6811;-77
2022/06/09 13:41:17;;;;;;;;;;;;;;;23.79;52.77;100652.00;5029185;28;6815;-77
2022/06/09 13:50:21;;;;;;;;;;;;;;;22.15;57.90;100659.66;5018686;28;6907;-79
2022/06/09 13:53:15;;;;;;;;;;;;;;;23.01;55.82;100662.50;5021709;28;6825;-79
2022/06/09 13:55:41;;;;;;;;;;;;;;;23.79;53.02;100665.09;5004679;28;7145;-77
2022/06/09 13:58:10;;;;;;;;;;;;;;;24.21;51.87;100668.44;5019028;28;7023;-77
2022/06/09 14:00:48;;;;;;;;;;;;;;;24.55;51.34;100670.03;5010785;28;6784;-77
2022/06/09 14:03:26;;;;;;;;;;;;;;;24.80;50.91;100673.38;4992489;28;6795;-77